Champion, NE

8:15 PM MDT on August 22, 2014 (GMT -0600)
Imperial Municipal | Change Station
CLOSE
Current Station
Airport
Location: Imperial,
Elevation: 3274 ft
Nearby Weather Stations
Active Advisory: Severe Thunderstorm Watch

Elev 3274 ft 40.51 °N, 101.62 °W | Updated 22 minutes ago

Light Rain
Light Rain
70 °F
Feels Like 70 °F
N
9
Wind Variable Wind from North

Today
High -- | Low -- °F
--% Chance of Precip.
Yesterday
High -- | Low -- °F
Precip. -- in
6:04 AM 7:34 PM
Waning Crescent, 6% visible
Pressure 29.88 in
Visibility 10.0 miles
Clouds Few 5500 ft
Few 7000 ft
Scattered Clouds 11000 ft
Dew Point 65 °F
Humidity 84%
Rainfall 0.10 in
Snow Depth Not available.
UV 0 out of 12
Pollen 9.90 out of 12
Air Quality Not available.
Flu Activity Not available.
METAR KIML 230153Z AUTO 01008KT 10SM -RA FEW055 FEW070 SCT110 21/18 A2995 RMK AO2 LTG DSNT E-SW SLP118 P0004 T02110183

More Conditions Fewer Conditions

Pressure 29.88 in
Visibility 10.0 miles
Clouds Few 5500 ft
Few 7000 ft
Scattered Clouds 11000 ft
Dew Point 65 °F
Humidity 84%
Rainfall 0.10 in
Snow Depth Not available.
UV 0 out of 12
Pollen 9.90 out of 12
Air Quality Not available.
Flu Activity Not available.
METAR KIML 230153Z AUTO 01008KT 10SM -RA FEW055 FEW070 SCT110 21/18 A2995 RMK AO2 LTG DSNT E-SW SLP118 P0004 T02110183

More Conditions Fewer Conditions

10-Day Weather Forecast

Almanac

Astronomy

Aug. 22, 2014 Rise Set
Actual Time 6:04 AM MDT 7:34 PM MDT
Civil Twilight 5:35 AM MDT 8:02 PM MDT
Nautical Twilight 5:01 AM MDT 8:37 PM MDT
Astronomical Twilight 4:24 AM MDT 9:13 PM MDT
Moon 3:28 AM MDT (8/22) 5:44 PM MDT (8/22)
Length of Visible Light 14h 26m
Length of Day
13h 29m
Tomorrow will be 2m 28s shorter.
Waning Crescent, 6% of the Moon is Illuminated
Today
Waning Crescent
Aug 25
New
Sep 2
First Quarter
Sep 8
Full
Sep 15
Last Quarter

Today's Extremes

State Highs State Lows

Community

WunderPhotos

Upload Photos

1,746,346 photos uploaded!

WunderBlogs® & News

Nearby

Snow Depth

Station Depth Elevation
No new snow has been reported.

Earthquake Activity

City Distance Mag. Time & Date
No recent earthquake activity has been reported nearby.
Minimum magnitude displayed is 2.5.

Coastal Water Temperatures

Place Temperature
No Stations Reporting

Nearby Weather Stations